Time;durP1;ratioP1;P1;durP2;ratioP2;P2;SDS_P1;SDS_P2;PMS_P1;PMS_P2;Temp;Humidity;BMP_temperature;BMP_pressure;BME280_temperature;BME280_humidity;BME280_pressure;Samples;Min_cycle;Max_cycle;Signal;HPM_P1;HPM_P2
2023/03/18 00:01:15;;;;;;;8.13;3.80;;;11.80;99.90;;;;;;4973532;28;20467;-79
2023/03/18 00:03:41;;;;;;;9.52;3.80;;;11.70;99.90;;;;;;4994089;28;20190;-79
2023/03/18 00:06:12;;;;;;;7.45;3.50;;;11.70;99.90;;;;;;4967451;28;20125;-78
2023/03/18 00:08:39;;;;;;;6.97;3.97;;;11.80;99.90;;;;;;4994433;28;20065;-78
2023/03/18 00:11:07;;;;;;;5.80;3.92;;;11.80;99.90;;;;;;4994211;28;20038;-78
2023/03/18 00:13:33;;;;;;;6.60;3.88;;;11.70;99.90;;;;;;5004332;28;20130;-79
2023/03/18 00:16:00;;;;;;;5.70;3.60;;;11.70;99.90;;;;;;4992742;28;20050;-79
2023/03/18 00:18:27;;;;;;;7.07;4.05;;;11.70;99.90;;;;;;4991092;28;20061;-79
2023/03/18 00:20:52;;;;;;;6.40;3.83;;;11.70;99.90;;;;;;4986716;28;20125;-78
2023/03/18 00:23:19;;;;;;;8.60;3.72;;;11.70;99.90;;;;;;4991415;28;20142;-78
2023/03/18 00:25:47;;;;;;;6.57;3.92;;;11.80;99.90;;;;;;4992827;28;20045;-78
2023/03/18 00:28:13;;;;;;;9.57;4.05;;;11.70;99.90;;;;;;4994009;28;20038;-79
2023/03/18 00:30:40;;;;;;;6.38;3.92;;;11.70;99.90;;;;;;4974644;28;20510;-79
2023/03/18 00:33:08;;;;;;;9.40;4.63;;;11.70;99.90;;;;;;4994725;28;20048;-79
2023/03/18 00:35:35;;;;;;;6.80;3.83;;;11.70;99.90;;;;;;4991345;28;20046;-79
2023/03/18 00:38:02;;;;;;;6.43;3.78;;;11.70;99.90;;;;;;4962398;28;20034;-79
2023/03/18 00:40:41;;;;;;;8.63;4.22;;;11.70;99.90;;;;;;4994111;28;20089;-79
2023/03/18 00:43:11;;;;;;;9.27;3.95;;;11.70;99.90;;;;;;4976902;28;20034;-79
2023/03/18 00:45:39;;;;;;;6.45;3.92;;;11.60;99.90;;;;;;4993500;28;20069;-79
2023/03/18 00:48:06;;;;;;;7.50;4.25;;;11.60;99.90;;;;;;4960728;28;20034;-79
2023/03/18 00:50:35;;;;;;;6.65;4.22;;;11.70;99.90;;;;;;4987625;28;20058;-79
2023/03/18 00:53:02;;;;;;;7.10;4.15;;;11.60;99.90;;;;;;4972411;28;20467;-79
2023/03/18 00:55:27;;;;;;;8.32;4.05;;;11.70;99.90;;;;;;4977321;28;20046;-79
2023/03/18 00:57:54;;;;;;;6.32;4.32;;;11.60;99.90;;;;;;4994967;28;20038;-78
2023/03/18 01:00:20;;;;;;;10.32;4.88;;;11.60;99.90;;;;;;4989176;28;20397;-79
2023/03/18 01:02:48;;;;;;;10.00;4.70;;;11.60;99.90;;;;;;4976203;28;22324;-79
2023/03/18 01:05:15;;;;;;;9.93;4.38;;;11.50;99.90;;;;;;4989157;28;20101;-79
2023/03/18 01:07:42;;;;;;;6.50;3.80;;;11.50;99.90;;;;;;4975814;28;20097;-79
2023/03/18 01:10:09;;;;;;;8.00;4.65;;;11.50;99.90;;;;;;4991274;28;20399;-78
2023/03/18 01:12:35;;;;;;;7.57;4.65;;;11.40;99.90;;;;;;4992247;28;20060;-78
2023/03/18 01:15:03;;;;;;;6.70;3.80;;;11.50;99.90;;;;;;4958582;28;20030;-79
2023/03/18 01:17:29;;;;;;;10.02;4.80;;;11.40;99.90;;;;;;4992655;28;20624;-79
2023/03/18 01:19:55;;;;;;;10.07;4.45;;;11.40;99.90;;;;;;4993816;28;20076;-78
2023/03/18 01:22:20;;;;;;;11.85;4.53;;;11.40;99.90;;;;;;4989197;28;20050;-78
2023/03/18 01:24:46;;;;;;;5.72;3.97;;;11.30;99.90;;;;;;4977752;28;20044;-78
2023/03/18 01:27:12;;;;;;;9.13;4.45;;;11.40;99.90;;;;;;4987673;28;20480;-79
2023/03/18 01:29:39;;;;;;;10.02;4.57;;;11.40;99.90;;;;;;4993435;28;20092;-79
2023/03/18 01:32:05;;;;;;;8.65;4.72;;;11.40;99.90;;;;;;4987864;28;20044;-79
2023/03/18 01:34:31;;;;;;;8.73;4.50;;;11.30;99.90;;;;;;4992893;28;20056;-79
2023/03/18 01:36:57;;;;;;;9.45;4.78;;;11.30;99.90;;;;;;4988163;28;20411;-79
2023/03/18 01:39:23;;;;;;;10.05;4.80;;;11.20;99.90;;;;;;4977372;28;20525;-79
2023/03/18 01:41:49;;;;;;;9.43;4.45;;;11.30;99.90;;;;;;4975334;28;20121;-79
2023/03/18 01:44:18;;;;;;;9.50;4.63;;;11.20;99.90;;;;;;4993527;28;20161;-79
2023/03/18 01:46:46;;;;;;;8.18;4.53;;;11.20;99.90;;;;;;4986354;28;20042;-79
2023/03/18 01:49:22;;;;;;;10.48;4.80;;;11.20;99.90;;;;;;4969716;28;20061;-79
2023/03/18 01:52:11;;;;;;;10.32;4.75;;;11.20;99.90;;;;;;4970670;28;20422;-78
2023/03/18 01:54:45;;;;;;;8.52;4.75;;;11.10;99.90;;;;;;4988285;28;20038;-79
2023/03/18 01:57:11;;;;;;;11.00;4.63;;;11.10;99.90;;;;;;5009662;28;20041;-79
2023/03/18 01:59:40;;;;;;;7.50;4.13;;;11.10;99.90;;;;;;4956030;28;20062;-79
2023/03/18 02:02:10;;;;;;;8.38;5.15;;;11.10;99.90;;;;;;4989195;28;20046;-79
2023/03/18 02:04:52;;;;;;;9.10;4.55;;;11.00;99.90;;;;;;4993886;28;20038;-79
2023/03/18 02:07:18;;;;;;;;;;;11.00;99.90;;;;;;4973092;28;20034;-79
2023/03/18 02:09:45;;;;;;;8.52;5.15;;;11.00;99.90;;;;;;5003495;28;20016;-79
2023/03/18 02:12:15;;;;;;;9.32;5.32;;;11.00;99.90;;;;;;4990232;28;20042;-79
2023/03/18 02:14:41;;;;;;;9.55;4.78;;;11.00;99.90;;;;;;4972967;28;20127;-79
2023/03/18 02:17:17;;;;;;;8.27;4.75;;;10.90;99.90;;;;;;4959392;28;20133;-79
2023/03/18 02:20:17;;;;;;;8.00;5.00;;;10.80;99.90;;;;;;4993211;28;20057;-79
2023/03/18 02:23:08;;;;;;;9.20;4.78;;;10.80;99.90;;;;;;4991352;28;20596;-79
2023/03/18 02:25:50;;;;;;;6.82;4.72;;;10.70;99.90;;;;;;4995123;28;20385;-78
2023/03/18 02:28:24;;;;;;;8.00;5.25;;;10.70;99.90;;;;;;4993921;28;20041;-79
2023/03/18 02:31:00;;;;;;;9.75;5.82;;;10.60;99.90;;;;;;4991166;28;20117;-79
2023/03/18 02:33:32;;;;;;;7.38;5.25;;;10.60;99.90;;;;;;4993196;28;20096;-79
2023/03/18 02:36:05;;;;;;;7.38;5.40;;;10.60;99.90;;;;;;5005397;28;20388;-78
2023/03/18 02:38:31;;;;;;;10.45;5.38;;;10.60;99.90;;;;;;4992100;28;20393;-79
2023/03/18 02:40:56;;;;;;;10.70;5.47;;;10.60;99.90;;;;;;4992125;28;20042;-78
2023/03/18 02:43:25;;;;;;;8.38;5.68;;;10.50;99.90;;;;;;4972381;28;20046;-79
2023/03/18 02:45:56;;;;;;;8.68;5.90;;;10.50;99.90;;;;;;4988718;28;20038;-79
2023/03/18 02:48:26;;;;;;;10.88;6.43;;;10.40;99.90;;;;;;4985339;28;20491;-78
2023/03/18 02:50:53;;;;;;;8.35;6.30;;;10.40;99.90;;;;;;4985884;28;20380;-79
2023/03/18 02:53:19;;;;;;;10.73;6.65;;;10.50;99.90;;;;;;4971204;28;20062;-78
2023/03/18 02:55:45;;;;;;;12.85;6.65;;;10.50;99.90;;;;;;4971999;28;20073;-78
2023/03/18 02:58:11;;;;;;;11.18;6.80;;;10.50;99.90;;;;;;4954845;28;20133;-79
2023/03/18 03:00:37;;;;;;;8.98;6.28;;;10.50;99.90;;;;;;4970695;28;20050;-78
2023/03/18 03:03:04;;;;;;;12.73;6.97;;;10.50;99.90;;;;;;4982064;28;20526;-78
2023/03/18 03:05:32;;;;;;;9.38;6.18;;;10.50;99.90;;;;;;5013373;28;20050;-78
2023/03/18 03:07:58;;;;;;;13.15;6.68;;;10.50;99.90;;;;;;4985592;28;20038;-79
2023/03/18 03:10:24;;;;;;;8.82;6.43;;;10.50;99.90;;;;;;4993364;28;20044;-79
2023/03/18 03:12:51;;;;;;;10.95;6.90;;;10.50;99.90;;;;;;5004104;28;20042;-79
2023/03/18 03:15:18;;;;;;;13.43;6.28;;;10.50;99.90;;;;;;4984000;28;20065;-79
2023/03/18 03:17:44;;;;;;;11.45;6.75;;;10.40;99.90;;;;;;4972897;28;20395;-79
2023/03/18 03:20:10;;;;;;;9.18;6.35;;;10.40;99.90;;;;;;4991823;28;20030;-79
2023/03/18 03:22:36;;;;;;;12.00;6.82;;;10.40;99.90;;;;;;4986101;28;20084;-79
2023/03/18 03:25:02;;;;;;;11.02;6.10;;;10.30;99.90;;;;;;4988916;28;20576;-79
2023/03/18 03:27:28;;;;;;;10.18;5.97;;;10.20;99.90;;;;;;4973669;28;20042;-79
2023/03/18 03:29:54;;;;;;;9.57;6.30;;;10.20;99.90;;;;;;4988437;28;20073;-79
2023/03/18 03:32:21;;;;;;;10.55;6.18;;;10.10;99.90;;;;;;4988082;28;20040;-79
2023/03/18 03:34:48;;;;;;;10.65;5.80;;;10.00;99.90;;;;;;4972825;28;20093;-79
2023/03/18 03:37:13;;;;;;;11.73;6.20;;;10.00;99.90;;;;;;4973792;28;20112;-79
2023/03/18 03:39:39;;;;;;;12.27;6.32;;;9.90;99.90;;;;;;4972379;28;20483;-79
2023/03/18 03:42:05;;;;;;;10.15;6.95;;;9.90;99.90;;;;;;4963745;28;20054;-79
2023/03/18 03:44:31;;;;;;;13.40;6.80;;;9.90;99.90;;;;;;4992412;28;20042;-79
2023/03/18 03:46:56;;;;;;;10.55;6.63;;;9.90;99.90;;;;;;4990014;28;20041;-79
2023/03/18 03:49:22;;;;;;;10.35;7.15;;;9.90;99.90;;;;;;4955332;28;20045;-79
2023/03/18 03:51:48;;;;;;;10.52;6.53;;;9.90;99.90;;;;;;4969166;28;20034;-79
2023/03/18 03:54:14;;;;;;;12.63;6.82;;;9.90;99.90;;;;;;4991036;28;20038;-79
2023/03/18 03:56:41;;;;;;;9.52;7.20;;;9.90;99.90;;;;;;4991953;28;20046;-79
2023/03/18 03:59:09;;;;;;;12.43;6.93;;;9.90;99.90;;;;;;4975076;28;20105;-79
2023/03/18 04:01:35;;;;;;;10.57;8.00;;;9.80;99.90;;;;;;4986359;28;20042;-79
2023/03/18 04:04:01;;;;;;;12.27;8.05;;;9.80;99.90;;;;;;4986722;28;20048;-79
2023/03/18 04:06:28;;;;;;;17.40;8.18;;;9.90;99.90;;;;;;4973416;28;20045;-79
2023/03/18 04:08:54;;;;;;;13.55;7.53;;;9.90;99.90;;;;;;4960974;28;20415;-79
2023/03/18 04:11:20;;;;;;;12.02;7.57;;;9.90;99.90;;;;;;4990444;28;20031;-79
2023/03/18 04:13:47;;;;;;;11.65;7.65;;;9.90;99.90;;;;;;4995280;28;20788;-78
2023/03/18 04:16:13;;;;;;;13.55;7.50;;;10.00;99.90;;;;;;4994544;28;20491;-79
2023/03/18 04:18:39;;;;;;;15.57;8.52;;;9.90;99.90;;;;;;4943238;28;20492;-78
2023/03/18 04:21:06;;;;;;;10.60;7.25;;;9.90;99.90;;;;;;4960900;28;20046;-79
2023/03/18 04:23:33;;;;;;;10.55;8.00;;;10.00;99.90;;;;;;4992110;28;20038;-79
2023/03/18 04:25:59;;;;;;;12.23;7.57;;;9.90;99.90;;;;;;4988349;28;20061;-79
2023/03/18 04:28:25;;;;;;;11.07;7.20;;;9.90;99.90;;;;;;4994115;28;20152;-79
2023/03/18 04:30:51;;;;;;;14.30;7.80;;;9.90;99.90;;;;;;4973650;28;20733;-79
2023/03/18 04:33:18;;;;;;;12.65;7.90;;;9.80;99.90;;;;;;4988742;28;20038;-79
2023/03/18 04:35:44;;;;;;;12.88;7.85;;;9.80;99.90;;;;;;4991040;28;20753;-79
2023/03/18 04:38:11;;;;;;;14.50;7.45;;;9.70;99.90;;;;;;4992335;28;20128;-79
2023/03/18 04:40:37;;;;;;;12.38;7.82;;;9.70;99.90;;;;;;4992429;28;20041;-79
2023/03/18 04:43:02;;;;;;;12.75;8.05;;;9.70;99.90;;;;;;4992417;28;20042;-78
2023/03/18 04:45:28;;;;;;;11.07;7.72;;;9.70;99.90;;;;;;4992397;28;20031;-78
2023/03/18 04:47:54;;;;;;;14.10;8.85;;;9.70;99.90;;;;;;4990087;28;20173;-78
2023/03/18 04:50:20;;;;;;;15.13;8.40;;;9.70;99.90;;;;;;4941441;28;20767;-78
2023/03/18 04:52:45;;;;;;;15.65;8.93;;;9.70;99.90;;;;;;4974064;28;20551;-78
2023/03/18 04:55:15;;;;;;;11.45;8.48;;;9.70;99.90;;;;;;4990969;28;20050;-79
2023/03/18 04:57:41;;;;;;;13.43;8.77;;;9.70;99.90;;;;;;4988297;28;20042;-79
2023/03/18 05:00:10;;;;;;;15.05;8.50;;;9.70;99.90;;;;;;4992140;28;20046;-78
2023/03/18 05:02:37;;;;;;;17.27;8.85;;;9.70;99.90;;;;;;4970891;28;20043;-79
2023/03/18 05:05:03;;;;;;;14.55;9.27;;;9.70;99.90;;;;;;4990392;28;20038;-79
2023/03/18 05:07:28;;;;;;;16.23;9.57;;;9.70;99.90;;;;;;4979859;28;20494;-79
2023/03/18 05:09:54;;;;;;;13.32;9.52;;;9.70;99.90;;;;;;4987784;28;20034;-79
2023/03/18 05:12:20;;;;;;;13.43;8.60;;;9.60;99.90;;;;;;4992016;28;20030;-79
2023/03/18 05:14:46;;;;;;;15.32;9.32;;;9.70;99.90;;;;;;4976515;28;20527;-79
2023/03/18 05:17:15;;;;;;;18.95;8.98;;;9.70;99.90;;;;;;4992521;28;20194;-79
2023/03/18 05:19:43;;;;;;;14.95;9.50;;;9.70;99.90;;;;;;4986867;28;20046;-79
2023/03/18 05:22:10;;;;;;;16.80;10.13;;;9.70;99.90;;;;;;5007162;28;20141;-79
2023/03/18 05:24:37;;;;;;;17.30;9.55;;;9.70;99.90;;;;;;4990012;28;20062;-79
2023/03/18 05:27:03;;;;;;;16.85;9.70;;;9.70;99.90;;;;;;4975665;28;20034;-79
2023/03/18 05:29:28;;;;;;;16.02;10.73;;;9.70;99.90;;;;;;4976404;28;20387;-79
2023/03/18 05:31:54;;;;;;;18.67;11.10;;;9.80;99.90;;;;;;4973277;28;20046;-79
2023/03/18 05:34:20;;;;;;;17.60;10.38;;;9.70;99.90;;;;;;4992556;28;20113;-79
2023/03/18 05:36:46;;;;;;;16.42;10.23;;;9.70;99.90;;;;;;4977181;28;21578;-79
2023/03/18 05:39:11;;;;;;;15.63;9.77;;;9.70;99.90;;;;;;4973173;28;20042;-79
2023/03/18 05:41:37;;;;;;;21.33;9.90;;;9.80;99.90;;;;;;4958438;28;20131;-79
2023/03/18 05:44:04;;;;;;;18.05;10.63;;;9.80;99.90;;;;;;4971682;28;20038;-79
2023/03/18 05:46:30;;;;;;;18.23;10.98;;;9.70;99.90;;;;;;4975153;28;20034;-79
2023/03/18 05:48:56;;;;;;;19.02;10.77;;;9.70;99.90;;;;;;4989273;28;20045;-79
2023/03/18 05:51:22;;;;;;;18.52;10.18;;;9.70;99.90;;;;;;4964772;28;20031;-78
2023/03/18 05:53:48;;;;;;;18.13;10.30;;;9.70;99.90;;;;;;4977742;28;20484;-79
2023/03/18 05:56:14;;;;;;;18.85;10.05;;;9.70;99.90;;;;;;4990661;28;20038;-79
2023/03/18 05:58:40;;;;;;;17.25;10.23;;;9.70;99.90;;;;;;4988285;28;20392;-79
2023/03/18 06:01:06;;;;;;;17.25;10.13;;;9.70;99.90;;;;;;4975278;28;20077;-78
2023/03/18 06:03:33;;;;;;;17.10;9.65;;;9.70;99.90;;;;;;5008682;28;20049;-78
2023/03/18 06:06:00;;;;;;;19.55;10.02;;;9.70;99.90;;;;;;4990887;28;20180;-79
2023/03/18 06:08:26;;;;;;;14.70;8.75;;;9.70;99.90;;;;;;4988181;28;20035;-78
2023/03/18 06:10:53;;;;;;;14.45;10.48;;;9.70;99.90;;;;;;4990158;28;20168;-78
2023/03/18 06:13:19;;;;;;;17.20;10.50;;;9.70;99.90;;;;;;4983706;28;20189;-78
2023/03/18 06:15:45;;;;;;;14.88;9.85;;;9.70;99.90;;;;;;4991281;28;20121;-78
2023/03/18 06:18:12;;;;;;;16.70;10.27;;;9.70;99.90;;;;;;4988620;28;20042;-78
2023/03/18 06:20:38;;;;;;;15.43;9.85;;;9.70;99.90;;;;;;4988540;28;20081;-78
2023/03/18 06:23:04;;;;;;;12.68;9.93;;;9.60;99.90;;;;;;4988437;28;20121;-78
2023/03/18 06:25:30;;;;;;;20.00;10.00;;;9.70;99.90;;;;;;4975307;28;20050;-79
2023/03/18 06:27:56;;;;;;;14.98;10.25;;;9.60;99.90;;;;;;4993225;28;20038;-79
2023/03/18 06:30:22;;;;;;;16.60;10.10;;;9.60;99.90;;;;;;4986608;28;20038;-79
2023/03/18 06:32:47;;;;;;;14.70;9.50;;;9.70;99.90;;;;;;4989214;28;20045;-78
2023/03/18 06:35:14;;;;;;;15.70;10.00;;;9.70;99.90;;;;;;4973946;28;20049;-78
2023/03/18 06:37:40;;;;;;;18.92;9.63;;;9.70;99.90;;;;;;4987020;28;20046;-79
2023/03/18 06:40:07;;;;;;;14.95;10.10;;;9.70;99.90;;;;;;4973401;28;20034;-79
2023/03/18 06:42:33;;;;;;;17.88;10.60;;;9.70;99.90;;;;;;4970731;28;20495;-78
2023/03/18 06:44:59;;;;;;;18.25;10.43;;;9.70;99.90;;;;;;4989198;28;20050;-78
2023/03/18 06:47:25;;;;;;;16.95;10.90;;;9.70;99.90;;;;;;4989052;28;20038;-78
2023/03/18 06:49:50;;;;;;;20.05;10.85;;;9.80;99.90;;;;;;4969435;28;20046;-78
2023/03/18 06:52:17;;;;;;;20.23;10.88;;;9.80;99.90;;;;;;4988898;28;20042;-78
2023/03/18 06:54:44;;;;;;;16.02;10.68;;;9.80;99.90;;;;;;4970734;28;20059;-79
2023/03/18 06:57:10;;;;;;;16.50;10.10;;;9.90;99.90;;;;;;4993587;28;20120;-78
2023/03/18 06:59:38;;;;;;;17.52;10.70;;;9.90;99.90;;;;;;4974294;28;20058;-78
2023/03/18 07:02:04;;;;;;;18.75;10.57;;;10.00;99.90;;;;;;4960800;28;20046;-79
2023/03/18 07:04:32;;;;;;;16.23;9.80;;;10.10;99.90;;;;;;4974395;28;20146;-79
2023/03/18 07:06:59;;;;;;;18.35;10.18;;;10.10;99.90;;;;;;4988153;28;20066;-79
2023/03/18 07:09:25;;;;;;;20.25;9.77;;;10.10;99.90;;;;;;4991981;28;20030;-78
2023/03/18 07:11:52;;;;;;;15.57;10.15;;;10.10;99.90;;;;;;4971804;28;20038;-79
2023/03/18 07:14:18;;;;;;;19.33;11.57;;;10.20;99.90;;;;;;5001145;28;20053;-79
2023/03/18 07:16:44;;;;;;;20.88;11.43;;;10.20;99.90;;;;;;4994659;28;20602;-79
2023/03/18 07:19:11;;;;;;;22.40;11.32;;;10.20;99.90;;;;;;4972521;28;20147;-79
2023/03/18 07:21:36;;;;;;;19.60;11.15;;;10.30;99.90;;;;;;4995239;28;20426;-79
2023/03/18 07:24:02;;;;;;;16.65;10.95;;;10.30;99.90;;;;;;5003605;28;20074;-78
2023/03/18 07:26:29;;;;;;;18.05;12.27;;;10.30;99.90;;;;;;4971466;28;20665;-78
2023/03/18 07:28:55;;;;;;;18.45;11.63;;;10.40;99.90;;;;;;4974952;28;20030;-78
2023/03/18 07:31:21;;;;;;;18.27;11.32;;;10.40;99.90;;;;;;4954072;28;20087;-79
2023/03/18 07:33:47;;;;;;;24.45;12.02;;;10.40;99.90;;;;;;4990756;28;20112;-79
2023/03/18 07:36:14;;;;;;;18.02;12.32;;;10.40;99.90;;;;;;4975053;28;20042;-79
2023/03/18 07:38:40;;;;;;;20.60;12.25;;;10.40;99.90;;;;;;4991624;28;20060;-79
2023/03/18 07:41:06;;;;;;;20.13;12.27;;;10.50;99.90;;;;;;4986251;28;20042;-79
2023/03/18 07:43:32;;;;;;;22.90;13.05;;;10.40;99.90;;;;;;4967074;28;20043;-79
2023/03/18 07:45:57;;;;;;;19.95;12.50;;;10.50;99.90;;;;;;4975668;28;20046;-79
2023/03/18 07:48:23;;;;;;;24.70;13.25;;;10.50;99.90;;;;;;4994043;28;20049;-78
2023/03/18 07:50:49;;;;;;;19.83;12.43;;;10.40;99.90;;;;;;4990504;28;20042;-78
2023/03/18 07:53:15;;;;;;;23.65;12.85;;;10.40;99.90;;;;;;4972780;28;20121;-80
2023/03/18 07:55:41;;;;;;;18.95;12.43;;;10.40;99.90;;;;;;4971784;28;20058;-78
2023/03/18 07:58:07;;;;;;;21.17;13.43;;;10.40;99.90;;;;;;4978869;28;20055;-79
2023/03/18 08:00:34;;;;;;;19.33;13.48;;;10.40;99.90;;;;;;4961910;28;20046;-79
2023/03/18 08:03:00;;;;;;;21.52;12.60;;;10.40;99.90;;;;;;4990527;28;20969;-78
2023/03/18 08:05:26;;;;;;;22.55;13.90;;;10.40;99.90;;;;;;4990691;28;20050;-78
2023/03/18 08:07:53;;;;;;;26.27;15.38;;;10.30;99.90;;;;;;4967100;28;20038;-78
2023/03/18 08:10:19;;;;;;;24.58;15.25;;;10.30;99.90;;;;;;4990088;28;20034;-78
2023/03/18 08:12:45;;;;;;;25.42;15.85;;;10.40;99.90;;;;;;4957659;28;20599;-79
2023/03/18 08:15:11;;;;;;;26.90;16.25;;;10.40;99.90;;;;;;4975219;28;20049;-79
2023/03/18 08:17:37;;;;;;;27.48;16.58;;;10.50;99.90;;;;;;4973762;28;20038;-78
2023/03/18 08:20:04;;;;;;;28.58;16.85;;;10.50;99.90;;;;;;4994052;28;20408;-78
2023/03/18 08:22:30;;;;;;;27.10;16.00;;;10.40;99.90;;;;;;5002474;28;20407;-80
2023/03/18 08:24:57;;;;;;;28.20;17.48;;;10.40;99.90;;;;;;4990913;28;20045;-77
2023/03/18 08:27:23;;;;;;;25.15;15.98;;;10.40;99.90;;;;;;4973489;28;20038;-77
2023/03/18 08:29:49;;;;;;;29.90;17.77;;;10.30;99.90;;;;;;4989355;28;20061;-77
2023/03/18 08:32:15;;;;;;;31.05;17.92;;;10.30;99.90;;;;;;5005003;28;20080;-77
2023/03/18 08:34:42;;;;;;;29.88;18.27;;;10.30;99.90;;;;;;4973555;28;20128;-78
2023/03/18 08:37:08;;;;;;;27.88;19.20;;;10.30;99.90;;;;;;4984975;28;20039;-77
2023/03/18 08:39:34;;;;;;;31.50;19.02;;;10.40;99.90;;;;;;4987721;28;20576;-78
2023/03/18 08:42:03;;;;;;;34.65;20.23;;;10.50;99.90;;;;;;4985657;28;20049;-78
2023/03/18 08:44:29;;;;;;;26.45;18.25;;;10.50;99.90;;;;;;5006839;28;20046;-77
2023/03/18 08:46:56;;;;;;;28.38;19.10;;;10.60;99.90;;;;;;5009224;28;20031;-77
2023/03/18 08:49:23;;;;;;;30.25;18.48;;;10.80;99.90;;;;;;4995171;28;20089;-79
2023/03/18 08:51:49;;;;;;;26.38;16.67;;;10.80;99.90;;;;;;4960796;28;20111;-79
2023/03/18 08:54:15;;;;;;;29.98;19.58;;;10.90;99.90;;;;;;4993408;28;20074;-80
2023/03/18 08:56:41;;;;;;;29.90;18.20;;;11.00;99.90;;;;;;4959334;28;20030;-80
2023/03/18 08:59:07;;;;;;;29.67;19.65;;;11.20;99.90;;;;;;4990556;28;20050;-79
2023/03/18 09:01:33;;;;;;;26.75;16.90;;;12.00;99.90;;;;;;4992488;28;20042;-79
2023/03/18 09:03:59;;;;;;;25.63;16.60;;;13.00;99.90;;;;;;4963806;28;20042;-78
2023/03/18 09:06:26;;;;;;;26.88;16.50;;;14.00;99.90;;;;;;4976623;28;20087;-81
2023/03/18 09:08:52;;;;;;;25.33;15.27;;;14.60;99.90;;;;;;4988501;28;20045;-81
2023/03/18 09:11:18;;;;;;;20.55;14.18;;;15.50;99.90;;;;;;4959058;28;20030;-84
2023/03/18 09:13:44;;;;;;;23.60;15.52;;;15.80;99.90;;;;;;4990706;28;20045;-80
2023/03/18 09:16:10;;;;;;;24.92;15.07;;;16.50;99.90;;;;;;4975979;28;20030;-80
2023/03/18 09:18:35;;;;;;;20.02;14.88;;;17.00;99.90;;;;;;4959094;28;20185;-81
2023/03/18 09:21:03;;;;;;;20.38;14.15;;;16.80;99.90;;;;;;4947266;28;20506;-81
2023/03/18 09:23:30;;;;;;;19.58;14.60;;;16.30;99.90;;;;;;4990885;28;20034;-80
2023/03/18 09:25:57;;;;;;;20.02;15.18;;;15.90;99.90;;;;;;4966186;28;20476;-79
2023/03/18 09:28:22;;;;;;;23.38;14.52;;;15.80;99.90;;;;;;4976537;28;20080;-80
2023/03/18 09:30:49;;;;;;;22.05;14.93;;;15.50;99.90;;;;;;4992635;28;20088;-79
2023/03/18 09:33:15;;;;;;;23.65;15.25;;;15.80;99.90;;;;;;4993661;28;20041;-78
2023/03/18 09:35:41;;;;;;;23.55;15.18;;;15.60;99.90;;;;;;4975793;28;20129;-78
2023/03/18 09:38:11;;;;;;;24.10;16.15;;;15.90;99.90;;;;;;4957993;28;20041;-77
2023/03/18 09:40:48;;;;;;;19.05;14.93;;;16.40;99.90;;;;;;5002061;28;20088;-77
2023/03/18 09:43:23;;;;;;;20.27;14.00;;;16.50;99.90;;;;;;4992797;28;20034;-76
2023/03/18 09:46:11;;;;;;;21.30;14.25;;;16.50;99.90;;;;;;4986447;28;20100;-76
2023/03/18 09:49:09;;;;;;;19.73;13.82;;;16.90;99.90;;;;;;4982394;28;20049;-77
2023/03/18 09:52:02;;;;;;;21.15;14.98;;;16.10;99.90;;;;;;5006701;28;20396;-77
2023/03/18 09:54:32;;;;;;;19.27;13.27;;;15.70;99.90;;;;;;4986065;28;20108;-78
2023/03/18 09:56:58;;;;;;;19.30;13.57;;;16.70;99.90;;;;;;5005098;28;20069;-78
2023/03/18 09:59:34;;;;;;;17.42;12.55;;;17.80;99.90;;;;;;4994193;28;20060;-78
2023/03/18 10:02:02;;;;;;;17.20;13.13;;;17.50;99.90;;;;;;4989654;28;20097;-78
2023/03/18 10:04:48;;;;;;;16.67;11.98;;;17.20;99.90;;;;;;4975599;28;20052;-82
2023/03/18 10:07:18;;;;;;;16.15;11.30;;;17.20;99.90;;;;;;4990224;28;20443;-82
2023/03/18 10:10:08;;;;;;;16.98;11.50;;;17.20;99.90;;;;;;4988810;28;20625;-82
2023/03/18 10:12:35;;;;;;;14.82;10.90;;;16.80;99.90;;;;;;4989841;28;20092;-82
2023/03/18 10:15:18;;;;;;;17.90;12.40;;;16.40;99.90;;;;;;4986497;28;20434;-83
2023/03/18 10:17:55;;;;;;;18.35;12.13;;;16.20;99.90;;;;;;4991042;28;20045;-84
2023/03/18 10:20:50;;;;;;;16.38;12.38;;;15.50;99.90;;;;;;4978220;28;20046;-86
2023/03/18 10:23:45;;;;;;;14.73;11.88;;;15.30;99.90;;;;;;4988580;28;20046;-82
2023/03/18 10:26:38;;;;;;;15.52;11.55;;;15.20;99.90;;;;;;4976205;28;20403;-85
2023/03/18 10:29:20;;;;;;;19.27;11.02;;;15.00;99.90;;;;;;5003725;28;20120;-84
2023/03/18 10:31:46;;;;;;;19.08;12.13;;;14.60;99.90;;;;;;4973102;28;20068;-83
2023/03/18 10:34:28;;;;;;;17.30;12.73;;;14.30;99.90;;;;;;4988046;28;20042;-83
2023/03/18 10:37:14;;;;;;;19.98;12.60;;;14.30;99.90;;;;;;4990222;28;20557;-85
2023/03/18 10:39:44;;;;;;;17.63;13.07;;;15.20;99.90;;;;;;4986070;28;20193;-82
2023/03/18 10:42:23;;;;;;;15.23;11.00;;;15.80;99.90;;;;;;4990717;28;20145;-82
2023/03/18 10:44:51;;;;;;;15.63;10.88;;;16.70;99.90;;;;;;4987616;28;20124;-82
2023/03/18 10:47:26;;;;;;;15.30;9.80;;;17.20;99.90;;;;;;5010799;28;20085;-81
2023/03/18 10:50:01;;;;;;;14.98;10.15;;;17.60;99.90;;;;;;4988139;28;20083;-81
2023/03/18 10:52:34;;;;;;;12.02;8.70;;;17.60;99.90;;;;;;4989754;28;20042;-81
2023/03/18 10:55:00;;;;;;;13.48;9.27;;;17.20;99.90;;;;;;4985677;28;20458;-81
2023/03/18 10:57:26;;;;;;;12.25;8.55;;;16.60;99.90;;;;;;4976787;28;20104;-81
2023/03/18 10:59:52;;;;;;;9.75;7.25;;;16.60;99.90;;;;;;4991317;28;20181;-81
2023/03/18 11:02:34;;;;;;;14.20;9.48;;;16.30;99.90;;;;;;4989681;28;20053;-80
2023/03/18 11:05:15;;;;;;;13.57;10.77;;;15.90;99.90;;;;;;4973138;28;20045;-81
2023/03/18 11:08:07;;;;;;;15.55;11.00;;;15.60;99.90;;;;;;4999630;28;20038;-80
2023/03/18 11:10:38;;;;;;;15.63;11.57;;;16.10;99.90;;;;;;5010403;28;20042;-80
2023/03/18 11:13:05;;;;;;;15.27;10.55;;;16.10;99.90;;;;;;5001738;28;20034;-81
2023/03/18 11:15:38;;;;;;;12.40;8.98;;;15.90;99.90;;;;;;4988036;28;20121;-81
2023/03/18 11:18:04;;;;;;;23.13;15.45;;;15.80;99.90;;;;;;4982518;28;20038;-80
2023/03/18 11:20:36;;;;;;;12.98;10.02;;;15.90;99.90;;;;;;5002387;28;20042;-81
2023/03/18 11:23:12;;;;;;;13.77;9.03;;;16.40;99.90;;;;;;4982447;28;20044;-80
2023/03/18 11:25:39;;;;;;;13.68;8.93;;;17.00;99.90;;;;;;4983653;28;20402;-81
2023/03/18 11:28:17;;;;;;;9.40;5.93;;;17.80;99.90;;;;;;4977756;28;20141;-79
2023/03/18 11:30:51;;;;;;;10.50;6.32;;;18.00;99.90;;;;;;4993293;28;20035;-79
2023/03/18 11:33:18;;;;;;;8.30;6.80;;;18.00;99.90;;;;;;4995037;28;20039;-79
2023/03/18 11:35:57;;;;;;;9.95;6.22;;;17.50;99.90;;;;;;4998879;28;20030;-80
2023/03/18 11:38:31;;;;;;;9.40;6.55;;;16.90;99.90;;;;;;4977731;28;20105;-80
2023/03/18 11:41:21;;;;;;;9.38;6.90;;;16.40;99.90;;;;;;4992206;28;20051;-80
2023/03/18 11:44:00;;;;;;;9.00;6.57;;;16.30;99.90;;;;;;4981924;28;20049;-80
2023/03/18 11:46:35;;;;;;;8.95;6.95;;;16.40;99.90;;;;;;5000026;28;20047;-80
2023/03/18 11:49:00;;;;;;;11.13;7.18;;;16.40;99.90;;;;;;4978573;28;20037;-80
2023/03/18 11:51:29;;;;;;;10.05;6.93;;;16.50;99.90;;;;;;4978793;28;20050;-80
2023/03/18 11:54:13;;;;;;;10.45;7.82;;;16.90;99.90;;;;;;4991795;28;20042;-80
2023/03/18 11:57:07;;;;;;;11.38;7.13;;;17.20;99.90;;;;;;4979521;28;20088;-80
2023/03/18 11:59:57;;;;;;;7.65;6.68;;;17.50;99.90;;;;;;5015301;28;20057;-80
2023/03/18 12:02:47;;;;;;;9.45;7.20;;;17.40;99.90;;;;;;4981998;28;20054;-79
2023/03/18 12:05:25;;;;;;;11.50;8.20;;;17.20;99.90;;;;;;4990463;28;20070;-84
2023/03/18 12:08:00;;;;;;;10.00;7.18;;;17.40;99.90;;;;;;4996603;28;20490;-79
2023/03/18 12:10:26;;;;;;;8.90;6.70;;;17.40;99.90;;;;;;5001983;28;20053;-78
2023/03/18 12:13:14;;;;;;;13.85;8.13;;;17.40;99.90;;;;;;5014081;28;20042;-79
2023/03/18 12:16:04;;;;;;;14.57;8.30;;;17.30;99.90;;;;;;4996917;28;20044;-79
2023/03/18 12:18:36;;;;;;;10.77;8.07;;;17.20;99.90;;;;;;4990043;28;20506;-79
2023/03/18 12:21:26;;;;;;;10.93;7.15;;;17.00;99.90;;;;;;4990020;28;20096;-79
2023/03/18 12:24:15;;;;;;;11.68;8.25;;;17.20;99.90;;;;;;4985827;28;20483;-79
2023/03/18 12:26:58;;;;;;;11.10;8.73;;;17.10;99.90;;;;;;4989603;28;20050;-78
2023/03/18 12:29:44;;;;;;;12.10;8.85;;;17.20;99.90;;;;;;4986481;28;20143;-80
2023/03/18 12:32:32;;;;;;;10.75;9.57;;;17.20;99.90;;;;;;5005100;28;20061;-80
2023/03/18 12:35:15;;;;;;;12.88;9.23;;;17.10;99.90;;;;;;4988556;28;20038;-79
2023/03/18 12:37:57;;;;;;;13.15;9.32;;;16.80;99.90;;;;;;5004861;28;20333;-80
2023/03/18 12:40:54;;;;;;;13.07;9.13;;;16.60;99.90;;;;;;4974730;28;20046;-80
2023/03/18 12:43:22;;;;;;;12.10;9.23;;;16.50;99.90;;;;;;4996838;28;20042;-79
2023/03/18 12:45:57;;;;;;;12.60;9.15;;;16.40;99.90;;;;;;4998163;28;20049;-80
2023/03/18 12:48:31;;;;;;;9.70;8.10;;;16.60;99.90;;;;;;4999477;28;20097;-79
2023/03/18 12:51:04;;;;;;;11.20;7.70;;;16.60;99.90;;;;;;4990340;28;20052;-79